KAJZ

UTC

Blake Field

Delta, Colorado, United States

METAR - Current

KAJZ 041235Z AUTO 00000KT 10SM 06/04 A3018 RMK AO2 T00630035 PWINO

Observed

Oct 04 12:35 UTC

Flight Rules

UNK

Visibility

10 SM

Temperature

6°C=43°F

Dew Point

4°C=39°F

Humidity

87%

Altimeter

30.18 Hg

Pressure

1022.0 hPa

METAR - Previous

KAJZ 041215Z AUTO 00000KT 10SM 07/03 A3018 RMK AO2 T00710034 PWINO

Observed

Oct 04 12:15 UTC

Flight Rules

UNK

Visibility

10 SM

Temperature

7°C=45°F

Dew Point

3°C=37°F

Humidity

76%

Altimeter

30.18 Hg

Pressure

1022.0 hPa